Terminal Aerodrome Forecast
Issued by NWS

Home | Current Version | Previous Version | Text Only | Print | Product List | Glossary On
Versions: 1 2 3 4 5 6 7 8 9 10 11 12 13 14 15 16 17
000
FTUS46 KMTR 221730
TAFSNS
TAF
KSNS 221730Z 2218/2318 13015G20KT P6SM -SHRA BKN020 BKN030 OVC050
     FM222100 22016KT P6SM VCTS BKN040CB
     FM230300 14010KT P6SM -SHRA BKN030
     FM231200 22006KT P6SM VCSH BKN100=

USA.gov is the U.S. government's official web portal to all federal, state and local government web resources and services.